Aviation Digital Data Service (ADDS)

Output produced by METARs form (1306 UTC 24 January 2017)
found at http://aviationweather.gov/adds/metars/
 
KROA 241139Z 2412/2512 34008KT P6SM BKN035 OVC110 
     FM241400 31013G25KT P6SM BKN040 
     FM241700 31016G28KT P6SM SCT050 
     FM242300 31011G20KT P6SM SKC 
     FM250500 30007KT P6SM SKC